This is the latest recevied weather packets stored in our database for station/object HA8LNU. If no packets are shown the sender has not sent any weather packets the latest 10 day(s).
| Time | Temp. | Humidity | Pressure | Rain* | Wind** | Luminosity | Snow |
|---|---|---|---|---|---|---|---|
| 1778092858 | 17.78° C | 56% | 1011.9 hPa | 0 mm | - | - | - |
| 1778092256 | 18.33° C | 54% | 1011.8 hPa | 0 mm | - | - | - |
| 1778080274 | 27.22° C | 30% | 1011.9 hPa | 0 mm | - | - | - |
| 1778067630 | 26.67° C | 31% | 1013.8 hPa | 0 mm | - | - | - |
| 1778065823 | 27.22° C | 30% | 1013.9 hPa | 0 mm | - | - | - |
| 1778065221 | 27.78° C | 30% | 1013.9 hPa | 0 mm | - | - | - |
| 1778064619 | 27.78° C | 30% | 1013.9 hPa | 0 mm | - | - | - |
| 1778059261 | 25.56° C | 35% | 1014.6 hPa | 0 mm | - | - | - |
| 1778058658 | 25.56° C | 34% | 1014.7 hPa | 0 mm | - | - | - |
| 1778057454 | 25° C | 36% | 1014.7 hPa | 0 mm | - | - | - |
| 1778048422 | 20° C | 50% | 1014.8 hPa | 0 mm | - | - | - |
| 1778046616 | 16.11° C | 63% | 1015 hPa | 0 mm | - | - | - |
| 1778045472 | 14.44° C | 66% | 1014.9 hPa | 0 mm | - | - | - |
| 1778043064 | 12.22° C | 72% | 1014.7 hPa | 0 mm | - | - | - |
| 1778040053 | 10° C | 76% | 1014.5 hPa | 0 mm | - | - | - |
| 1778038849 | 8.89° C | 78% | 1014.2 hPa | 0 mm | - | - | - |
| 1778038247 | 8.33° C | 77% | 1014.1 hPa | 0 mm | - | - | - |
| 1778037645 | 8.33° C | 76% | 1013.9 hPa | 0 mm | - | - | - |
| 1778029817 | 8.89° C | 73% | 1013.4 hPa | 0 mm | - | - | - |
| 1778022050 | 13.89° C | 52% | 1013.3 hPa | 0 mm | - | - | - |
| 1778020846 | 13.89° C | 53% | 1013.3 hPa | 0 mm | - | - | - |
| 1778019642 | 11.67° C | 64% | 1012.9 hPa | 0 mm | - | - | - |
| 1778018437 | 11.11° C | 65% | 1012.8 hPa | 0 mm | - | - | - |
| 1778014223 | 12.22° C | 63% | 1012.5 hPa | 0 mm | - | - | - |
| 1778008864 | 14.44° C | 54% | 1012.1 hPa | 0 mm | - | - | - |
* Rain latest hour (hover to see other rain measurements)
** Current wind speed in m/s (hover to see current wind gust speed)